Detroit, OR (97342)

8:48 PM PDT on September 04, 2015 (GMT -0700)
KatzInDaWoodz | | Change Station
CLOSE
Current Station
Personal Weather Station
Location: Mill City, OR
Elevation: 1007 ft
Nearby Weather Stations

Elev 1007 ft 44.76 °N, 122.47 °W | Updated 6 seconds ago

Partly Cloudy
Partly Cloudy
50.9 °F
Feels Like 50.9 °F
N
0.0
Wind Variable Wind from NNE
Gusts 1.0 mph

Today
High -- | Low -- °F
--% Chance of Precip.
Yesterday
High -- | Low -- °F
Precip. -- in
6:34 AM 7:40 PM
Waning Gibbous, 53% visible
Pressure 29.98 in
Visibility 10.0 miles
Clouds Scattered Clouds 5500 ft
Scattered Clouds 7000 ft
Dew Point 44 °F
Humidity 78%
Rainfall 0.00 in
Snow Depth Not available.
UV 0 out of 12
Pollen 2.80 out of 12
Air Quality Not available.
Flu Activity Not available.
METAR KSLE 050256Z 29008KT 10SM SCT055 SCT070 16/07 A2998 RMK AO2 SLP151 T01610072 53008
Pressure 29.98 in
Visibility 10.0 miles
Clouds Scattered Clouds 5500 ft
Scattered Clouds 7000 ft
Dew Point 44 °F
Humidity 78%
Rainfall 0.00 in
Snow Depth Not available.
UV 0 out of 12
Pollen 2.80 out of 12
Air Quality Not available.
Flu Activity Not available.
METAR KSLE 050256Z 29008KT 10SM SCT055 SCT070 16/07 A2998 RMK AO2 SLP151 T01610072 53008

10-Day Weather Forecast

×

Almanac

Astronomy

Sep. 04, 2015 Rise Set
Actual Time
Civil Twilight
Nautical Twilight
Astronomical Twilight
Moon
Length of Visible Light
Length of Day
Tomorrow will be .
, % of the Moon is Illuminated

Today's Extremes

State Highs State Lows

Community

WunderPhotos

Upload Photos

1,852,408 photos uploaded!

WunderBlogs® & News

Nearby

Air Quality

  Air Quality AQ Index Pollutant
Not available.

Snow Depth

Station Depth Elevation

Earthquake Activity

City Distance Mag. Time & Date
Minimum magnitude displayed is 2.5.

Coastal Water Temperatures

Place Temperature

Stations

Nearby Weather Stations

Station Location Temp. Windchill Dew Point Humidity Wind Precip. Elev Updated Type